Terminal Aerodrome Forecast
Issued by NWS

Home | Current Version | Previous Version | Text Only | Print | Product List | Glossary On
Versions: 1 2 3 4 5 6 7 8 9 10 11 12 13 14 15 16 17 18 19
533
FTUS46 KPDT 180938 AAA
TAFPSC
TAF AMD
KPSC 180938Z 1810/1906 06004KT 6SM FZRAPL BKN015 OVC040
      TEMPO 1810/1812 4SM BR SCT015 OVC040
     FM181600 12006KT 4SM -RA BR SCT035 OVC060
     FM182100 16007KT P6SM VCSH FEW040 OVC080=

USA.gov is the U.S. government's official web portal to all federal, state and local government web resources and services.